createdAt,value
2022-11-17T00:00:50.383Z,98449.53
2022-11-17T00:05:51.906Z,98450.63
2022-11-17T00:10:53.501Z,98425.19
2022-11-17T00:15:55.040Z,98393.72
2022-11-17T00:21:15.236Z,98352.44
2022-11-17T00:26:19.059Z,98313.56
2022-11-17T00:31:40.416Z,98282.13
2022-11-17T00:36:48.164Z,98270.66
2022-11-17T00:41:50.177Z,98245.78
2022-11-17T00:46:51.841Z,98255.06
2022-11-17T00:51:55.047Z,98260.53
2022-11-17T00:56:56.616Z,98262.47
2022-11-17T01:01:58.297Z,98248.25
2022-11-17T01:06:59.897Z,98231.81
2022-11-17T01:12:01.534Z,98241.59
2022-11-17T01:17:03.090Z,98270.56
2022-11-17T01:22:04.704Z,98294.59
2022-11-17T01:27:06.255Z,98312.09
2022-11-17T01:32:07.809Z,98313.50
2022-11-17T01:37:21.452Z,98309.09
2022-11-17T01:42:25.770Z,98315.16
2022-11-17T01:47:39.486Z,98323.09
2022-11-17T01:52:41.528Z,98317.66
2022-11-17T01:57:56.473Z,98290.06
2022-11-17T02:02:58.907Z,98242.47
2022-11-17T02:08:04.791Z,98220.34
2022-11-17T02:13:25.240Z,98218.44
2022-11-17T02:18:26.975Z,98202.28
2022-11-17T02:23:58.827Z,98220.88
2022-11-17T02:29:18.586Z,98232.63
2022-11-17T02:34:35.330Z,98256.63
2022-11-17T02:40:07.010Z,98288.63
2022-11-17T02:45:14.197Z,98345.00
2022-11-17T02:50:18.483Z,98349.69
2022-11-17T02:55:22.467Z,98271.75
2022-11-17T03:00:25.515Z,98131.59
2022-11-17T03:05:58.472Z,98038.50
2022-11-17T03:11:03.563Z,97985.50
2022-11-17T03:16:23.718Z,98002.72
2022-11-17T03:22:01.926Z,98011.19
2022-11-17T03:27:15.346Z,98027.28
2022-11-17T03:32:18.639Z,98080.78
2022-11-17T03:37:22.109Z,98112.13
2022-11-17T03:42:29.524Z,98079.97
2022-11-17T03:47:33.450Z,98087.06
2022-11-17T03:52:36.625Z,98116.25
2022-11-17T03:57:46.464Z,98118.19
2022-11-17T04:02:54.016Z,98098.25
2022-11-17T04:07:55.585Z,98106.44
2022-11-17T04:13:15.812Z,98125.00
2022-11-17T04:18:17.456Z,98128.53
2022-11-17T04:23:19.228Z,98125.81
2022-11-17T04:28:39.495Z,98125.28
2022-11-17T04:33:46.040Z,98112.50
2022-11-17T04:38:50.394Z,98118.22
2022-11-17T04:43:52.847Z,98119.88
2022-11-17T04:48:55.301Z,98112.19
2022-11-17T04:53:57.494Z,98109.19
2022-11-17T04:58:59.373Z,98111.13
2022-11-17T05:04:11.619Z,98104.56
2022-11-17T05:09:15.870Z,98117.38
2022-11-17T05:14:20.523Z,98121.19
2022-11-17T05:19:29.022Z,98134.53
2022-11-17T05:24:30.608Z,98125.78
2022-11-17T05:29:32.201Z,98139.16
2022-11-17T05:34:33.796Z,98148.78
2022-11-17T05:39:35.360Z,98151.25
2022-11-17T05:44:36.981Z,98161.34
2022-11-17T05:49:38.757Z,98169.25
2022-11-17T05:54:40.529Z,98181.00
2022-11-17T05:59:48.718Z,98189.22
2022-11-17T06:04:53.026Z,98184.56
2022-11-17T06:09:54.916Z,98199.03
2022-11-17T06:14:56.510Z,98195.75
2022-11-17T06:20:02.914Z,98188.34
2022-11-17T06:25:07.004Z,98181.81
2022-11-17T06:30:08.817Z,98180.44
2022-11-17T06:35:12.973Z,98160.19
2022-11-17T06:40:15.037Z,98150.88
2022-11-17T06:45:19.232Z,98171.94
2022-11-17T06:50:21.094Z,98174.38
2022-11-17T06:55:22.700Z,98170.81
2022-11-17T07:00:24.276Z,98183.41
2022-11-17T07:05:25.897Z,98176.06
2022-11-17T07:10:29.695Z,98179.88
2022-11-17T07:15:31.877Z,98187.47
2022-11-17T07:20:33.430Z,98205.28
2022-11-17T07:25:35.071Z,98209.41
2022-11-17T07:30:36.752Z,98227.53
2022-11-17T07:35:40.676Z,98246.25
2022-11-17T07:40:42.241Z,98262.66
2022-11-17T07:45:43.793Z,98283.97
2022-11-17T07:50:45.421Z,98285.56
2022-11-17T07:55:47.064Z,98291.28
2022-11-17T08:00:48.704Z,98315.63
2022-11-17T08:05:50.500Z,98317.81
2022-11-17T08:10:52.063Z,98321.34
2022-11-17T08:15:57.486Z,98326.78
2022-11-17T08:21:08.347Z,98354.50
2022-11-17T08:26:11.855Z,98330.38
2022-11-17T08:31:15.828Z,98325.50
2022-11-17T08:36:17.406Z,98328.72
2022-11-17T08:41:19.815Z,98357.66
2022-11-17T08:46:21.379Z,98416.19
2022-11-17T08:51:22.923Z,98453.34
2022-11-17T08:56:24.515Z,98515.53
2022-11-17T09:01:26.109Z,98512.16
2022-11-17T09:06:27.721Z,98532.66
2022-11-17T09:11:29.347Z,98499.75
2022-11-17T09:16:30.988Z,98542.78
2022-11-17T09:21:33.911Z,98549.06
2022-11-17T09:26:35.797Z,98616.44
2022-11-17T09:31:39.768Z,98605.16
2022-11-17T09:36:42.208Z,98610.41
2022-11-17T09:41:49.595Z,98642.84
2022-11-17T09:47:10.112Z,98645.75
2022-11-17T09:52:19.765Z,98662.22
2022-11-17T09:57:46.869Z,98691.38
2022-11-17T10:02:50.748Z,98732.50
2022-11-17T10:07:54.782Z,98727.44
2022-11-17T10:12:58.610Z,98699.38
2022-11-17T10:18:02.356Z,98675.31
2022-11-17T10:23:04.713Z,98653.81
2022-11-17T10:28:08.669Z,98712.53
2022-11-17T10:33:13.208Z,98662.94
2022-11-17T10:38:20.903Z,98684.69
2022-11-17T10:43:29.118Z,98720.75
2022-11-17T10:48:38.684Z,98648.00
2022-11-17T10:53:46.377Z,98656.53
2022-11-17T10:58:59.536Z,98628.22
2022-11-17T11:04:02.401Z,98613.47
2022-11-17T11:09:16.067Z,98556.19
2022-11-17T11:14:20.015Z,98542.47
2022-11-17T11:19:21.744Z,98557.25
2022-11-17T11:24:40.438Z,98519.28
2022-11-17T11:30:03.770Z,98510.91
2022-11-17T11:35:30.660Z,98460.00
2022-11-17T11:40:38.112Z,98434.59
2022-11-17T11:45:49.563Z,98399.91
2022-11-17T11:50:54.615Z,98400.00
2022-11-17T11:56:12.158Z,98410.88
2022-11-17T12:01:17.738Z,98412.03
2022-11-17T12:06:42.387Z,98436.56
2022-11-17T12:12:02.793Z,98453.53
2022-11-17T12:17:04.335Z,98448.34
2022-11-17T12:22:05.923Z,98455.31
2022-11-17T12:27:35.418Z,98459.94
2022-11-17T12:32:49.206Z,98463.09
2022-11-17T12:38:12.719Z,98428.38
2022-11-17T12:43:17.308Z,98414.72
2022-11-17T12:48:40.280Z,98376.25
2022-11-17T12:54:20.946Z,98267.13
2022-11-17T12:59:37.625Z,98220.66
2022-11-17T13:04:49.840Z,98202.56
2022-11-17T13:09:54.354Z,98223.53
2022-11-17T13:14:58.367Z,98221.22
2022-11-17T13:20:24.906Z,98240.50
2022-11-17T13:25:31.551Z,98232.00
2022-11-17T13:30:33.502Z,98236.09
2022-11-17T13:35:36.140Z,98253.34
2022-11-17T13:40:44.061Z,98267.53
2022-11-17T13:45:47.214Z,98257.72
2022-11-17T13:50:49.107Z,98257.75
2022-11-17T13:55:52.020Z,98270.41
2022-11-17T14:00:57.248Z,98265.22
2022-11-17T14:05:58.912Z,98274.75
2022-11-17T14:11:09.590Z,98292.88
2022-11-17T14:16:34.667Z,98306.84
2022-11-17T14:21:36.520Z,98296.84
2022-11-17T14:26:44.987Z,98289.16
2022-11-17T14:31:46.787Z,98289.97
2022-11-17T14:36:51.811Z,98295.69
2022-11-17T14:41:53.364Z,98277.91
2022-11-17T14:46:54.910Z,98285.31
2022-11-17T14:51:59.096Z,98272.47
2022-11-17T14:57:00.729Z,98272.44
2022-11-17T15:02:02.461Z,98272.75
2022-11-17T15:07:04.116Z,98285.03
2022-11-17T15:12:06.035Z,98310.00
2022-11-17T15:17:13.939Z,98310.28
2022-11-17T15:22:16.228Z,98330.25
2022-11-17T15:27:17.788Z,98333.53
2022-11-17T15:32:19.465Z,98332.19
2022-11-17T15:37:21.038Z,98333.28
2022-11-17T15:42:22.651Z,98319.31
2022-11-17T15:47:24.204Z,98309.47
2022-11-17T15:52:48.852Z,98315.50
2022-11-17T15:57:47.446Z,98316.06
2022-11-17T16:02:49.000Z,98314.41
2022-11-17T16:07:50.663Z,98318.25
2022-11-17T16:12:52.227Z,98319.59
2022-11-17T16:17:53.799Z,98293.63
2022-11-17T16:22:57.288Z,98306.19
2022-11-17T16:27:58.976Z,98309.47
2022-11-17T16:33:00.552Z,98303.22
2022-11-17T16:38:02.146Z,98307.03
2022-11-17T16:43:03.699Z,98302.38
2022-11-17T16:48:05.327Z,98299.09
2022-11-17T16:53:06.913Z,98295.00
2022-11-17T16:58:10.027Z,98313.59
2022-11-17T17:03:11.689Z,98314.97
2022-11-17T17:08:13.321Z,98309.47
2022-11-17T17:13:14.855Z,98335.47
2022-11-17T17:18:16.406Z,98346.69
2022-11-17T17:23:18.663Z,98354.34
2022-11-17T17:28:20.250Z,98363.63
2022-11-17T17:33:21.812Z,98383.84
2022-11-17T17:38:23.415Z,98401.31
2022-11-17T17:43:25.278Z,98398.88
2022-11-17T17:48:26.913Z,98405.16
2022-11-17T17:53:28.703Z,98385.75
2022-11-17T17:58:31.357Z,98384.41
2022-11-17T18:03:32.970Z,98386.28
2022-11-17T18:08:36.161Z,98379.75
2022-11-17T18:13:40.451Z,98390.41
2022-11-17T18:18:42.338Z,98396.94
2022-11-17T18:23:44.176Z,98410.31
2022-11-17T18:29:00.192Z,98424.53
2022-11-17T18:34:08.554Z,98423.47
2022-11-17T18:39:10.871Z,98441.78
2022-11-17T18:44:22.623Z,98445.59
2022-11-17T18:49:24.203Z,98435.47
2022-11-17T18:54:25.789Z,98441.19
2022-11-17T18:59:27.753Z,98442.69
2022-11-17T19:04:29.579Z,98371.66
2022-11-17T19:09:31.484Z,98409.19
2022-11-17T19:14:33.160Z,98431.50
2022-11-17T19:19:34.794Z,98413.97
2022-11-17T19:24:36.361Z,98434.13
2022-11-17T19:29:40.133Z,98446.34
2022-11-17T19:34:41.909Z,98450.94
2022-11-17T19:39:43.544Z,98448.75
2022-11-17T19:44:45.096Z,98443.75
2022-11-17T19:49:46.692Z,98459.28
2022-11-17T19:54:48.280Z,98469.94
2022-11-17T19:59:49.828Z,98474.91
2022-11-17T20:04:53.740Z,98485.84
2022-11-17T20:09:55.303Z,98484.53
2022-11-17T20:14:56.877Z,98478.00
2022-11-17T20:19:58.481Z,98492.97
2022-11-17T20:25:03.397Z,98496.25
2022-11-17T20:30:06.171Z,98509.31
2022-11-17T20:35:08.641Z,98512.31
2022-11-17T20:40:10.976Z,98520.25
2022-11-17T20:45:12.562Z,98528.41
2022-11-17T20:50:14.375Z,98530.41
2022-11-17T20:55:16.094Z,98534.00
2022-11-17T21:00:17.887Z,98535.88
2022-11-17T21:05:19.802Z,98534.94
2022-11-17T21:10:21.383Z,98526.34
2022-11-17T21:15:22.984Z,98518.31
2022-11-17T21:20:28.060Z,98525.03
2022-11-17T21:25:29.631Z,98535.06
2022-11-17T21:30:32.468Z,98529.53
2022-11-17T21:35:34.112Z,98532.50
2022-11-17T21:40:37.939Z,98533.84
2022-11-17T21:45:39.672Z,98548.56
2022-11-17T21:50:44.464Z,98542.66
2022-11-17T21:55:46.081Z,98543.47
2022-11-17T22:00:47.824Z,98539.41
2022-11-17T22:05:52.110Z,98539.22
2022-11-17T22:10:53.932Z,98544.72
2022-11-17T22:15:55.506Z,98545.34
2022-11-17T22:20:57.100Z,98546.53
2022-11-17T22:26:01.672Z,98548.75
2022-11-17T22:31:09.056Z,98546.31
2022-11-17T22:36:10.657Z,98548.84
2022-11-17T22:41:13.256Z,98553.56
2022-11-17T22:46:14.875Z,98541.03
2022-11-17T22:51:36.176Z,98551.41
2022-11-17T22:56:37.943Z,98553.06
2022-11-17T23:01:39.599Z,98542.47
2022-11-17T23:06:41.151Z,98557.22
2022-11-17T23:11:43.164Z,98555.94
2022-11-17T23:16:44.780Z,98552.47
2022-11-17T23:21:46.385Z,98552.31
2022-11-17T23:26:47.930Z,98559.47
2022-11-17T23:31:49.521Z,98561.72
2022-11-17T23:36:51.104Z,98548.91
2022-11-17T23:41:52.668Z,98561.16
2022-11-17T23:46:54.253Z,98548.56
2022-11-17T23:51:55.824Z,98541.47
2022-11-17T23:56:57.404Z,98533.28
